createdAt,value
2023-03-15T00:01:32.362Z,13.63
2023-03-15T00:04:01.443Z,15.27
2023-03-15T00:06:33.920Z,16.85
2023-03-15T00:09:03.217Z,13.02
2023-03-15T00:11:32.758Z,13.95
2023-03-15T00:14:03.538Z,15.23
2023-03-15T00:19:02.082Z,14.77
2023-03-15T00:21:32.326Z,11.90
2023-03-15T00:24:01.531Z,13.70
2023-03-15T00:26:30.525Z,13.63
2023-03-15T00:28:59.403Z,12.07
2023-03-15T00:31:28.135Z,11.80
2023-03-15T00:33:57.092Z,13.40
2023-03-15T00:36:27.148Z,16.15
2023-03-15T00:38:58.343Z,11.55
2023-03-15T00:41:27.411Z,10.13
2023-03-15T00:43:55.952Z,6.15
2023-03-15T00:46:24.900Z,4.93
2023-03-15T00:48:53.849Z,4.13
2023-03-15T00:51:24.195Z,6.55
2023-03-15T00:53:55.077Z,2.67
2023-03-15T00:56:27.991Z,3.45
2023-03-15T00:58:56.397Z,1.67
2023-03-15T01:01:27.489Z,1.92
2023-03-15T01:03:56.847Z,1.70
2023-03-15T01:08:57.356Z,2.33
2023-03-15T01:11:29.203Z,4.28
2023-03-15T01:14:00.450Z,2.38
2023-03-15T01:16:29.874Z,1.88
2023-03-15T01:18:58.822Z,2.43
2023-03-15T01:21:27.813Z,5.15
2023-03-15T01:23:56.733Z,2.30
2023-03-15T01:26:25.641Z,4.60
2023-03-15T01:28:56.533Z,3.90
2023-03-15T01:31:27.530Z,1.80
2023-03-15T01:33:56.739Z,2.78
2023-03-15T01:36:26.253Z,2.28
2023-03-15T01:41:39.873Z,2.40
2023-03-15T01:44:14.341Z,2.05
2023-03-15T01:46:43.353Z,4.03
2023-03-15T01:49:19.944Z,3.47
2023-03-15T01:51:51.805Z,4.68
2023-03-15T01:54:24.021Z,2.78
2023-03-15T01:56:56.461Z,3.10
2023-03-15T01:59:29.050Z,2.60
2023-03-15T02:01:57.709Z,3.15
2023-03-15T02:04:31.504Z,2.85
2023-03-15T02:07:01.311Z,4.32
2023-03-15T02:09:38.325Z,2.88
2023-03-15T02:12:07.387Z,1.80
2023-03-15T02:14:38.036Z,2.75
2023-03-15T02:17:08.760Z,9.00
2023-03-15T02:19:50.352Z,1.80
2023-03-15T02:22:29.503Z,6.93
2023-03-15T02:25:02.199Z,4.25
2023-03-15T02:27:34.617Z,2.15
2023-03-15T02:30:05.965Z,7.20
2023-03-15T02:32:35.058Z,4.82
2023-03-15T02:35:03.947Z,5.20
2023-03-15T02:37:32.558Z,6.30
2023-03-15T02:40:01.366Z,4.00
2023-03-15T02:42:31.599Z,4.68
2023-03-15T02:47:34.162Z,3.80
2023-03-15T02:50:03.119Z,3.83
2023-03-15T02:52:31.972Z,4.70
2023-03-15T02:55:02.276Z,5.80
2023-03-15T02:57:31.577Z,8.63
2023-03-15T03:00:07.254Z,5.25
2023-03-15T03:02:36.181Z,4.90
2023-03-15T03:05:05.513Z,3.33
2023-03-15T03:07:34.118Z,5.28
2023-03-15T03:10:07.613Z,6.30
2023-03-15T03:12:46.758Z,4.63
2023-03-15T03:15:17.231Z,6.57
2023-03-15T03:20:15.909Z,2.30
2023-03-15T03:22:47.764Z,5.15
2023-03-15T03:25:19.205Z,5.70
2023-03-15T03:27:49.553Z,4.78
2023-03-15T03:30:20.026Z,4.22
2023-03-15T03:32:53.264Z,5.72
2023-03-15T03:35:23.283Z,5.40
2023-03-15T03:37:53.707Z,3.65
2023-03-15T03:40:28.296Z,7.57
2023-03-15T03:42:57.404Z,7.03
2023-03-15T03:45:27.872Z,6.43
2023-03-15T03:47:59.693Z,6.75
2023-03-15T03:50:28.928Z,7.20
2023-03-15T03:52:57.807Z,9.80
2023-03-15T03:55:34.122Z,6.88
2023-03-15T03:58:03.063Z,7.63
2023-03-15T04:00:48.017Z,5.72
2023-03-15T04:03:17.108Z,7.40
2023-03-15T04:05:50.102Z,8.45
2023-03-15T04:08:22.312Z,8.73
2023-03-15T04:10:54.335Z,13.40
2023-03-15T04:13:25.533Z,9.90
2023-03-15T04:15:58.047Z,10.73
2023-03-15T04:18:31.191Z,6.68
2023-03-15T04:21:01.043Z,6.82
2023-03-15T04:23:30.321Z,7.50
2023-03-15T04:26:34.750Z,5.93
2023-03-15T04:29:30.203Z,8.48
2023-03-15T04:32:18.982Z,10.68
2023-03-15T04:34:57.596Z,9.25
2023-03-15T04:37:59.311Z,17.08
2023-03-15T04:40:49.663Z,12.68
2023-03-15T04:43:28.288Z,10.48
2023-03-15T04:46:10.083Z,7.53
2023-03-15T04:48:54.638Z,8.40
2023-03-15T04:51:34.646Z,6.20
2023-03-15T04:54:41.910Z,10.07
2023-03-15T04:57:29.352Z,9.73
2023-03-15T05:00:21.872Z,10.98
2023-03-15T05:03:09.632Z,17.00
2023-03-15T05:05:58.958Z,17.50
2023-03-15T05:08:45.460Z,14.23
2023-03-15T05:11:26.504Z,16.13
2023-03-15T05:14:27.478Z,13.15
2023-03-15T05:17:11.428Z,11.00
2023-03-15T05:20:16.666Z,10.60
2023-03-15T05:22:54.482Z,11.32
2023-03-15T05:25:39.843Z,13.68
2023-03-15T05:28:29.820Z,30.00
2023-03-15T05:31:17.221Z,8.65
2023-03-15T05:34:06.668Z,10.45
2023-03-15T05:36:38.662Z,13.40
2023-03-15T05:39:38.548Z,13.77
2023-03-15T05:42:13.531Z,13.88
2023-03-15T05:45:01.029Z,17.23
2023-03-15T05:47:30.268Z,17.08
2023-03-15T05:50:18.626Z,12.77
2023-03-15T05:53:06.093Z,14.40
2023-03-15T05:55:49.371Z,16.85
2023-03-15T05:58:32.092Z,12.23
2023-03-15T06:01:04.267Z,18.48
2023-03-15T06:03:51.700Z,13.73
2023-03-15T06:06:25.963Z,14.73
2023-03-15T06:08:55.202Z,17.73
2023-03-15T06:11:25.778Z,17.35
2023-03-15T06:16:36.954Z,17.52
2023-03-15T06:19:06.627Z,17.20
2023-03-15T06:21:35.510Z,23.73
2023-03-15T06:24:10.573Z,11.10
2023-03-15T06:26:41.337Z,24.97
2023-03-15T06:29:10.990Z,17.10
2023-03-15T06:31:39.555Z,14.80
2023-03-15T06:34:12.038Z,15.07
2023-03-15T06:36:42.473Z,15.83
2023-03-15T06:39:12.205Z,18.67
2023-03-15T06:41:43.056Z,16.42
2023-03-15T06:44:17.857Z,13.20
2023-03-15T06:46:47.631Z,17.30
2023-03-15T06:49:16.568Z,13.50
2023-03-15T06:51:46.150Z,14.77
2023-03-15T06:54:15.091Z,18.10
2023-03-15T06:56:45.698Z,15.80
2023-03-15T06:59:14.732Z,16.58
2023-03-15T07:01:43.468Z,16.63
2023-03-15T07:04:12.561Z,17.25
2023-03-15T07:06:41.688Z,14.07
2023-03-15T07:09:10.803Z,21.02
2023-03-15T07:11:39.761Z,17.02
2023-03-15T07:14:10.108Z,16.55
2023-03-15T07:16:38.775Z,14.40
2023-03-15T07:19:07.754Z,18.25
2023-03-15T07:21:36.772Z,15.05
2023-03-15T07:24:06.197Z,13.70
2023-03-15T07:26:35.204Z,14.20
2023-03-15T07:29:04.098Z,20.70
2023-03-15T07:31:34.022Z,13.15
2023-03-15T07:36:32.609Z,12.00
2023-03-15T07:39:01.820Z,13.38
2023-03-15T07:41:31.392Z,13.43
2023-03-15T07:44:08.874Z,16.20
2023-03-15T07:46:39.094Z,16.95
2023-03-15T07:49:08.191Z,13.68
2023-03-15T07:51:37.212Z,25.92
2023-03-15T07:54:06.234Z,16.73
2023-03-15T07:56:35.148Z,20.80
2023-03-15T07:59:04.052Z,15.73
2023-03-15T08:01:32.594Z,12.88
2023-03-15T08:04:03.420Z,17.50
2023-03-15T08:06:32.461Z,14.88
2023-03-15T08:09:04.551Z,15.75
2023-03-15T08:11:33.829Z,20.55
2023-03-15T08:14:02.745Z,17.08
2023-03-15T08:16:31.396Z,15.85
2023-03-15T08:19:00.494Z,13.40
2023-03-15T08:21:33.840Z,18.92
2023-03-15T08:24:03.380Z,15.10
2023-03-15T08:26:32.541Z,16.47
2023-03-15T08:29:01.561Z,7.97
2023-03-15T08:31:30.198Z,7.90
2023-03-15T08:33:59.180Z,18.65
2023-03-15T08:36:28.367Z,15.45
2023-03-15T08:38:58.877Z,16.08
2023-03-15T08:41:27.825Z,19.35
2023-03-15T08:43:56.718Z,11.88
2023-03-15T08:46:27.158Z,10.90
2023-03-15T08:48:56.211Z,13.65
2023-03-15T08:51:25.685Z,14.45
2023-03-15T08:53:55.210Z,7.47
2023-03-15T08:56:25.608Z,11.90
2023-03-15T08:58:56.828Z,14.38
2023-03-15T09:01:25.995Z,10.00
2023-03-15T09:03:54.944Z,10.07
2023-03-15T09:06:24.053Z,21.40
2023-03-15T09:08:53.950Z,13.02
2023-03-15T09:11:23.345Z,13.07
2023-03-15T09:14:08.429Z,12.32
2023-03-15T09:16:37.463Z,7.53
2023-03-15T09:19:06.485Z,13.10
2023-03-15T09:21:35.714Z,10.43
2023-03-15T09:24:05.070Z,13.32
2023-03-15T09:26:34.153Z,12.23
2023-03-15T09:29:03.182Z,10.73
2023-03-15T09:31:33.303Z,12.75
2023-03-15T09:34:02.238Z,11.65
2023-03-15T09:36:31.511Z,13.35
2023-03-15T09:39:01.719Z,13.43
2023-03-15T09:41:42.888Z,14.13
2023-03-15T09:44:18.761Z,10.30
2023-03-15T09:46:58.950Z,7.25
2023-03-15T09:52:05.383Z,10.55
2023-03-15T09:54:40.388Z,13.23
2023-03-15T09:57:15.993Z,18.00
2023-03-15T09:59:48.371Z,11.45
2023-03-15T10:02:23.680Z,10.15
2023-03-15T10:04:56.044Z,7.53
2023-03-15T10:07:25.022Z,11.18
2023-03-15T10:09:54.535Z,12.60
2023-03-15T10:12:25.615Z,8.50
2023-03-15T10:15:02.917Z,8.82
2023-03-15T10:17:39.350Z,11.10
2023-03-15T10:20:13.138Z,6.72
2023-03-15T10:22:47.562Z,6.78
2023-03-15T10:25:18.914Z,8.50
2023-03-15T10:27:51.005Z,12.50
2023-03-15T10:30:22.254Z,15.32
2023-03-15T10:32:57.484Z,9.60
2023-03-15T10:35:26.866Z,10.65
2023-03-15T10:37:55.645Z,10.95
2023-03-15T10:40:40.899Z,10.73
2023-03-15T10:43:20.715Z,14.23
2023-03-15T10:46:00.473Z,11.77
2023-03-15T10:48:32.847Z,12.77
2023-03-15T10:51:06.119Z,13.23
2023-03-15T10:53:35.309Z,11.35
2023-03-15T10:56:07.237Z,11.25
2023-03-15T10:58:42.798Z,11.63
2023-03-15T11:01:15.990Z,18.90
2023-03-15T11:03:46.942Z,17.02
2023-03-15T11:06:25.762Z,13.90
2023-03-15T11:08:54.616Z,9.98
2023-03-15T11:11:23.510Z,17.58
2023-03-15T11:14:01.727Z,11.23
2023-03-15T11:16:36.222Z,10.43
2023-03-15T11:19:13.932Z,11.88
2023-03-15T11:21:44.122Z,10.65
2023-03-15T11:24:22.778Z,11.18
2023-03-15T11:26:53.928Z,12.57
2023-03-15T11:29:25.540Z,10.70
2023-03-15T11:31:55.091Z,17.10
2023-03-15T11:34:40.336Z,7.90
2023-03-15T11:37:17.438Z,19.67
2023-03-15T11:39:51.730Z,13.93
2023-03-15T11:42:28.452Z,13.77
2023-03-15T11:45:00.361Z,8.60
2023-03-15T11:47:37.575Z,9.80
2023-03-15T11:50:09.451Z,14.82
2023-03-15T11:52:37.980Z,14.60
2023-03-15T11:55:08.173Z,14.73
2023-03-15T11:57:40.910Z,12.02
2023-03-15T12:00:28.286Z,7.50
2023-03-15T12:03:00.061Z,14.80
2023-03-15T12:05:47.354Z,7.60
2023-03-15T12:08:25.302Z,14.90
2023-03-15T12:10:54.284Z,14.45
2023-03-15T12:13:28.020Z,11.75
2023-03-15T12:15:57.094Z,8.93
2023-03-15T12:18:32.851Z,11.65
2023-03-15T12:21:18.343Z,11.68
2023-03-15T12:23:59.113Z,10.02
2023-03-15T12:26:33.843Z,12.13
2023-03-15T12:29:10.038Z,11.18
2023-03-15T12:32:01.554Z,12.45
2023-03-15T12:34:39.528Z,10.82
2023-03-15T12:37:14.244Z,11.57
2023-03-15T12:39:46.264Z,15.82
2023-03-15T12:43:10.693Z,16.90
2023-03-15T12:45:43.678Z,13.13
2023-03-15T12:48:23.465Z,12.50
2023-03-15T12:50:56.332Z,12.88
2023-03-15T12:53:31.151Z,12.15
2023-03-15T12:56:08.576Z,17.85
2023-03-15T12:58:38.748Z,11.75
2023-03-15T13:01:09.114Z,11.88
2023-03-15T13:03:38.347Z,11.32
2023-03-15T13:06:13.322Z,12.00
2023-03-15T13:08:47.878Z,9.65
2023-03-15T13:11:21.702Z,14.60
2023-03-15T13:14:07.365Z,11.45
2023-03-15T13:16:39.303Z,15.13
2023-03-15T13:19:18.873Z,10.98
2023-03-15T13:22:05.108Z,10.73
2023-03-15T13:24:43.469Z,13.55
2023-03-15T13:27:17.972Z,8.60
2023-03-15T13:29:47.121Z,8.43
2023-03-15T13:32:17.822Z,9.27
2023-03-15T13:37:17.571Z,13.32
2023-03-15T13:40:02.690Z,12.20
2023-03-15T13:42:31.814Z,13.45
2023-03-15T13:45:14.306Z,9.60
2023-03-15T13:47:44.197Z,20.63
2023-03-15T13:50:16.312Z,10.18
2023-03-15T13:52:45.873Z,14.55
2023-03-15T13:55:18.163Z,11.35
2023-03-15T13:57:47.210Z,9.38
2023-03-15T14:00:19.487Z,13.18
2023-03-15T14:02:50.231Z,13.85
2023-03-15T14:05:27.621Z,17.10
2023-03-15T14:08:02.834Z,17.13
2023-03-15T14:10:35.568Z,13.25
2023-03-15T14:13:22.500Z,12.82
2023-03-15T14:15:52.672Z,12.40
2023-03-15T14:18:25.295Z,12.57
2023-03-15T14:20:58.499Z,13.45
2023-03-15T14:23:28.156Z,12.50
2023-03-15T14:26:04.971Z,15.35
2023-03-15T14:28:34.801Z,10.73
2023-03-15T14:31:05.294Z,12.73
2023-03-15T14:36:07.231Z,11.37
2023-03-15T14:38:39.272Z,17.55
2023-03-15T14:41:25.413Z,20.77
2023-03-15T14:43:54.278Z,14.32
2023-03-15T14:46:23.218Z,14.77
2023-03-15T14:48:52.550Z,12.40
2023-03-15T14:51:23.229Z,14.53
2023-03-15T14:53:54.769Z,13.25
2023-03-15T14:56:25.429Z,12.15
2023-03-15T15:01:26.885Z,11.68
2023-03-15T15:03:59.898Z,8.38
2023-03-15T15:06:29.953Z,9.30
2023-03-15T15:09:00.483Z,9.68
2023-03-15T15:11:30.931Z,8.32
2023-03-15T15:14:00.108Z,8.18
2023-03-15T15:16:28.701Z,8.50
2023-03-15T15:18:57.785Z,20.70
2023-03-15T15:21:28.978Z,9.70
2023-03-15T15:23:59.337Z,16.65
2023-03-15T15:26:34.594Z,17.45
2023-03-15T15:29:03.176Z,11.88
2023-03-15T15:31:34.542Z,11.15
2023-03-15T15:34:03.958Z,16.60
2023-03-15T15:36:34.953Z,20.40
2023-03-15T15:39:07.514Z,14.50
2023-03-15T15:41:38.089Z,15.15
2023-03-15T15:44:13.131Z,14.38
2023-03-15T15:46:41.715Z,24.38
2023-03-15T15:49:10.666Z,16.42
2023-03-15T15:51:42.060Z,13.32
2023-03-15T15:54:15.620Z,23.25
2023-03-15T15:56:48.934Z,18.00
2023-03-15T15:59:19.505Z,15.70
2023-03-15T16:02:00.177Z,9.57
2023-03-15T16:04:30.229Z,18.42
2023-03-15T16:07:01.995Z,17.48
2023-03-15T16:09:33.746Z,14.55
2023-03-15T16:12:04.712Z,21.58
2023-03-15T16:14:33.688Z,20.50
2023-03-15T16:17:02.878Z,16.17
2023-03-15T16:19:31.610Z,11.50
2023-03-15T16:22:01.047Z,22.13
2023-03-15T16:24:34.781Z,10.07
2023-03-15T16:27:08.154Z,13.90
2023-03-15T16:29:39.066Z,12.02
2023-03-15T16:32:45.231Z,21.33
2023-03-15T16:35:54.535Z,12.82
2023-03-15T16:39:05.142Z,15.85
2023-03-15T16:42:18.089Z,12.35
2023-03-15T16:45:27.947Z,30.02
2023-03-15T16:48:37.225Z,17.65
2023-03-15T16:51:49.365Z,13.68
2023-03-15T16:54:58.701Z,17.63
2023-03-15T16:58:17.236Z,24.05
2023-03-15T17:01:26.879Z,14.93
2023-03-15T17:04:36.292Z,20.02
2023-03-15T17:07:46.298Z,28.33
2023-03-15T17:10:55.896Z,19.60
2023-03-15T17:14:07.615Z,24.33
2023-03-15T17:17:16.913Z,17.90
2023-03-15T17:20:28.581Z,17.75
2023-03-15T17:23:38.008Z,18.17
2023-03-15T17:26:47.691Z,17.60
2023-03-15T17:29:58.520Z,17.97
2023-03-15T17:33:08.532Z,20.13
2023-03-15T17:36:21.298Z,17.13
2023-03-15T17:39:30.547Z,18.88
2023-03-15T17:42:39.779Z,16.70
2023-03-15T17:45:50.282Z,18.35
2023-03-15T17:49:00.155Z,21.70
2023-03-15T17:52:14.361Z,31.88
2023-03-15T17:55:26.098Z,26.27
2023-03-15T17:58:35.900Z,21.73
2023-03-15T18:01:48.838Z,28.67
2023-03-15T18:04:58.462Z,22.20
2023-03-15T18:08:08.315Z,29.67
2023-03-15T18:11:22.856Z,20.73
2023-03-15T18:14:37.287Z,30.67
2023-03-15T18:17:48.825Z,29.02
2023-03-15T18:20:58.260Z,25.15
2023-03-15T18:24:11.058Z,33.50
2023-03-15T18:27:21.286Z,28.55
2023-03-15T18:30:32.224Z,34.55
2023-03-15T18:33:42.853Z,34.22
2023-03-15T18:36:52.086Z,39.95
2023-03-15T18:40:01.342Z,32.88
2023-03-15T18:43:13.897Z,35.08
2023-03-15T18:46:25.213Z,44.22
2023-03-15T18:49:35.865Z,28.40
2023-03-15T18:52:45.660Z,37.30
2023-03-15T18:55:54.821Z,40.85
2023-03-15T18:59:05.145Z,35.03
2023-03-15T19:02:14.390Z,51.85
2023-03-15T19:05:25.682Z,37.20
2023-03-15T19:08:35.038Z,43.72
2023-03-15T19:11:44.246Z,46.22
2023-03-15T19:14:53.394Z,39.40
2023-03-15T19:18:02.636Z,34.15
2023-03-15T19:21:13.378Z,33.97
2023-03-15T19:24:22.590Z,27.02
2023-03-15T19:27:31.830Z,33.10
2023-03-15T19:30:41.129Z,36.88
2023-03-15T19:33:50.276Z,35.60
2023-03-15T19:37:01.448Z,29.23
2023-03-15T19:40:12.129Z,34.45
2023-03-15T19:43:21.370Z,35.47
2023-03-15T19:46:30.685Z,23.45
2023-03-15T19:49:39.876Z,33.03
2023-03-15T19:52:50.540Z,28.05
2023-03-15T19:55:59.891Z,37.33
2023-03-15T19:59:09.252Z,32.15
2023-03-15T20:02:21.111Z,29.27
2023-03-15T20:05:30.341Z,26.00
2023-03-15T20:08:41.177Z,26.33
2023-03-15T20:11:50.457Z,32.00
2023-03-15T20:14:59.712Z,42.63
2023-03-15T20:18:13.081Z,39.22
2023-03-15T20:21:22.798Z,32.78
2023-03-15T20:24:33.514Z,36.45
2023-03-15T20:27:43.065Z,36.40
2023-03-15T20:30:52.341Z,31.73
2023-03-15T20:34:01.503Z,37.33
2023-03-15T20:37:13.676Z,34.70
2023-03-15T20:40:24.581Z,35.95
2023-03-15T20:43:34.403Z,25.50
2023-03-15T20:46:43.957Z,39.33
2023-03-15T20:49:54.353Z,36.13
2023-03-15T20:56:16.521Z,30.75
2023-03-15T20:59:25.662Z,31.58
2023-03-15T21:02:34.948Z,25.92
2023-03-15T21:05:45.553Z,34.95
2023-03-15T21:08:54.737Z,39.05
2023-03-15T21:12:05.716Z,37.58
2023-03-15T21:15:17.877Z,50.72
2023-03-15T21:18:27.212Z,50.85
2023-03-15T21:21:36.424Z,48.83
2023-03-15T21:24:55.158Z,60.28
2023-03-15T21:28:07.171Z,48.83
2023-03-15T21:31:16.731Z,55.83
2023-03-15T21:34:25.933Z,46.03
2023-03-15T21:37:35.110Z,61.75
2023-03-15T21:40:45.033Z,60.20
2023-03-15T21:43:55.960Z,51.22
2023-03-15T21:47:06.313Z,56.17
2023-03-15T21:53:25.015Z,58.72
2023-03-15T21:56:34.315Z,59.75
2023-03-15T21:59:44.827Z,58.63
2023-03-15T22:02:55.797Z,63.40
2023-03-15T22:06:05.478Z,69.75
2023-03-15T22:09:14.662Z,64.00
2023-03-15T22:12:25.364Z,70.68
2023-03-15T22:15:35.906Z,70.05
2023-03-15T22:18:45.186Z,63.97
2023-03-15T22:21:54.396Z,65.07
2023-03-15T22:25:03.555Z,72.90
2023-03-15T22:28:12.972Z,57.58
2023-03-15T22:31:23.642Z,55.88
2023-03-15T22:34:34.436Z,48.35
2023-03-15T22:37:43.633Z,55.92
2023-03-15T22:41:01.346Z,53.95
2023-03-15T22:44:10.545Z,52.33
2023-03-15T22:47:21.154Z,49.42
2023-03-15T22:50:30.250Z,48.35
2023-03-15T22:53:39.366Z,58.72
2023-03-15T22:56:48.406Z,44.05
2023-03-15T22:59:58.751Z,48.75
2023-03-15T23:06:18.104Z,47.53
2023-03-15T23:09:27.330Z,45.28
2023-03-15T23:12:36.932Z,37.13
2023-03-15T23:15:46.066Z,44.40
2023-03-15T23:18:56.651Z,41.38
2023-03-15T23:22:06.437Z,44.72
2023-03-15T23:25:18.167Z,37.17
2023-03-15T23:28:27.398Z,48.53
2023-03-15T23:31:36.608Z,38.50
2023-03-15T23:34:47.150Z,45.95
2023-03-15T23:37:56.670Z,42.53
2023-03-15T23:41:06.229Z,42.90
2023-03-15T23:44:15.357Z,46.60
2023-03-15T23:47:25.330Z,43.45
2023-03-15T23:50:35.870Z,36.53
2023-03-15T23:53:44.958Z,38.83
2023-03-15T23:56:54.030Z,41.00
